Time;durP1;ratioP1;P1;durP2;ratioP2;P2;SDS_P1;SDS_P2;PMS_P1;PMS_P2;Temp;Humidity;BMP_temperature;BMP_pressure;BME280_temperature;BME280_humidity;BME280_pressure;Samples;Min_cycle;Max_cycle;Signal;HPM_P1;HPM_P2
2023/10/15 00:00:29;;;;;;;6.00;2.47;;;;;21.50;100648.00;;;;2069861;28;20221;-56
2023/10/15 00:01:30;;;;;;;4.03;2.53;;;;;21.50;100649.00;;;;2068603;28;20221;-57
2023/10/15 00:02:31;;;;;;;5.70;2.97;;;;;21.50;100648.00;;;;2070565;28;20249;-60
2023/10/15 00:03:33;;;;;;;3.92;2.40;;;;;21.50;100648.00;;;;2066596;28;20217;-56
2023/10/15 00:04:34;;;;;;;3.72;2.15;;;;;21.50;100657.00;;;;2069313;28;20309;-58
2023/10/15 00:05:35;;;;;;;3.33;1.97;;;;;21.50;100645.00;;;;2069067;28;20683;-58
2023/10/15 00:06:35;;;;;;;5.93;2.65;;;;;21.50;100644.00;;;;2063156;28;20529;-56
2023/10/15 00:07:35;;;;;;;4.27;2.10;;;;;21.50;100643.00;;;;2068969;28;20216;-57
2023/10/15 00:08:36;;;;;;;5.63;2.70;;;;;21.50;100644.00;;;;2066422;28;20214;-57
2023/10/15 00:09:36;;;;;;;4.23;2.37;;;;;21.50;100645.00;;;;2077032;28;20229;-56
2023/10/15 00:10:37;;;;;;;4.70;1.93;;;;;21.50;100650.00;;;;2067763;28;22038;-57
2023/10/15 00:11:37;;;;;;;4.77;2.10;;;;;21.50;100652.00;;;;2069693;28;20226;-57
2023/10/15 00:12:41;;;;;;;3.90;2.13;;;;;21.50;100655.00;;;;2058968;28;20214;-57
2023/10/15 00:13:42;;;;;;;5.65;2.50;;;;;21.50;100715.00;;;;2063295;28;20219;-56
2023/10/15 00:14:42;;;;;;;7.47;2.50;;;;;21.50;100645.00;;;;2073392;28;20786;-56
2023/10/15 00:15:43;;;;;;;4.70;2.13;;;;;21.50;100641.00;;;;2067155;28;20699;-57
2023/10/15 00:16:44;;;;;;;4.32;2.03;;;;;21.50;100648.00;;;;2069907;28;20556;-58
2023/10/15 00:17:48;;;;;;;4.07;2.40;;;;;21.50;100654.00;;;;2060311;28;20210;-57
2023/10/15 00:18:48;;;;;;;3.95;2.20;;;;;21.50;100647.00;;;;2063819;28;20230;-57
2023/10/15 00:19:49;;;;;;;3.90;2.27;;;;;21.50;100641.00;;;;2067028;28;20221;-57
2023/10/15 00:20:53;;;;;;;4.88;2.10;;;;;21.50;100644.00;;;;2074715;28;20216;-56
2023/10/15 00:21:53;;;;;;;4.15;1.80;;;;;21.50;100645.00;;;;2059049;28;20215;-57
2023/10/15 00:22:54;;;;;;;5.67;2.40;;;;;21.50;100642.00;;;;2049009;28;20219;-58
2023/10/15 00:23:54;;;;;;;5.73;1.87;;;;;21.50;100637.00;;;;2069347;28;20239;-58
2023/10/15 00:24:54;;;;;;;5.20;2.20;;;;;21.50;100638.00;;;;2068707;28;20217;-57
2023/10/15 00:25:59;;;;;;;3.20;1.87;;;;;21.40;100640.00;;;;2073668;28;20271;-56
2023/10/15 00:26:59;;;;;;;3.70;2.30;;;;;21.40;100634.00;;;;2074775;28;20861;-58
2023/10/15 00:28:00;;;;;;;4.67;2.10;;;;;21.40;100636.00;;;;2059125;28;20226;-58
2023/10/15 00:29:00;;;;;;;3.00;1.87;;;;;21.40;100645.00;;;;2068886;28;20259;-57
2023/10/15 00:30:02;;;;;;;3.47;2.00;;;;;21.40;100634.00;;;;2070326;28;20596;-56
2023/10/15 00:31:08;;;;;;;4.18;1.88;;;;;21.40;100636.00;;;;2068817;28;20301;-58
2023/10/15 00:32:09;;;;;;;3.42;2.08;;;;;21.40;100636.00;;;;2063517;28;20270;-58
2023/10/15 00:33:12;;;;;;;4.57;2.08;;;;;21.40;100633.00;;;;2062254;28;20228;-56
2023/10/15 00:34:13;;;;;;;3.80;2.15;;;;;21.50;100665.00;;;;2074641;28;20228;-56
2023/10/15 00:35:14;;;;;;;2.80;1.70;;;;;21.40;100633.00;;;;2067180;28;20690;-56
2023/10/15 00:36:14;;;;;;;3.30;1.90;;;;;21.50;100636.00;;;;2063188;28;20687;-58
2023/10/15 00:37:15;;;;;;;3.17;1.93;;;;;21.40;100671.00;;;;2065949;28;20453;-57
2023/10/15 00:38:19;;;;;;;3.43;1.93;;;;;21.40;100532.00;;;;2062654;28;20319;-56
2023/10/15 00:39:20;;;;;;;5.28;2.15;;;;;21.40;100642.00;;;;2053839;28;20232;-56
2023/10/15 00:40:21;;;;;;;2.80;1.80;;;;;21.40;100640.00;;;;2065911;28;20226;-56
2023/10/15 00:41:22;;;;;;;5.03;1.65;;;;;21.40;100635.00;;;;2062785;28;20230;-56
2023/10/15 00:42:23;;;;;;;4.43;2.00;;;;;21.40;100638.00;;;;2060170;28;20215;-58
2023/10/15 00:43:23;;;;;;;7.37;2.30;;;;;21.40;100631.00;;;;2067501;28;20456;-57
2023/10/15 00:44:25;;;;;;;3.37;1.47;;;;;21.40;100638.00;;;;2076389;28;20213;-56
2023/10/15 00:45:26;;;;;;;2.80;2.08;;;;;21.40;100638.00;;;;2065086;28;20233;-57
2023/10/15 00:46:27;;;;;;;4.17;1.87;;;;;21.40;100630.00;;;;2068578;28;20230;-57
2023/10/15 00:47:34;;;;;;;3.15;1.77;;;;;21.40;100641.00;;;;2069136;28;20272;-58
2023/10/15 00:48:35;;;;;;;3.47;2.20;;;;;21.40;100631.00;;;;2062444;28;20218;-58
2023/10/15 00:49:38;;;;;;;2.67;1.50;;;;;21.40;100667.00;;;;2071682;28;20225;-57
2023/10/15 00:50:39;;;;;;;2.90;1.80;;;;;21.40;100639.00;;;;2075740;28;21002;-56
2023/10/15 00:51:41;;;;;;;3.92;2.20;;;;;21.40;100633.00;;;;2072694;28;20229;-56
2023/10/15 00:52:44;;;;;;;2.25;1.38;;;;;21.40;100628.00;;;;2051451;28;20214;-58
2023/10/15 00:53:54;;;;;;;3.00;1.60;;;;;21.40;100616.00;;;;2066081;28;20218;-56
2023/10/15 00:54:54;;;;;;;2.78;1.90;;;;;21.40;100625.00;;;;2065873;28;20250;-56
2023/10/15 00:56:05;;;;;;;2.50;1.40;;;;;21.40;100626.00;;;;2059289;28;21031;-56
2023/10/15 00:58:38;;;;;;;4.15;1.50;;;;;21.40;100632.00;;;;2049573;28;20695;-57
2023/10/15 00:59:45;;;;;;;3.13;1.83;;;;;20.90;100635.00;;;;2065714;28;21024;-56
2023/10/15 01:00:54;;;;;;;3.58;1.55;;;;;21.40;100636.00;;;;2070441;28;20678;-57
2023/10/15 01:02:03;;;;;;;2.83;1.80;;;;;21.40;100650.00;;;;2059296;28;20229;-56
2023/10/15 01:03:07;;;;;;;2.92;1.58;;;;;21.40;100631.00;;;;2046865;28;20247;-57
2023/10/15 01:04:07;;;;;;;2.75;1.35;;;;;21.40;100628.00;;;;2071144;28;20217;-58
2023/10/15 01:05:08;;;;;;;4.77;1.70;;;;;21.40;100639.00;;;;2074649;28;20758;-60
2023/10/15 01:06:08;;;;;;;3.90;1.93;;;;;21.40;100627.00;;;;2071056;28;21237;-58
2023/10/15 01:07:22;;;;;;;3.60;1.60;;;;;21.40;100631.00;;;;2071512;28;20230;-58
2023/10/15 01:08:55;;;;;;;3.05;1.60;;;;;21.40;100636.00;;;;2056713;28;20271;-57
2023/10/15 01:09:48;;;;;;;1.92;1.30;;;;;21.40;100630.00;;;;2066430;28;20202;-57
2023/10/15 01:10:53;;;;;;;3.73;1.90;;;;;21.40;100627.00;;;;2068034;28;20214;-57
2023/10/15 01:11:56;;;;;;;2.63;1.40;;;;;21.40;100633.00;;;;2068915;28;20245;-57
2023/10/15 01:12:57;;;;;;;3.80;1.73;;;;;21.30;100633.00;;;;2061874;28;20225;-57
2023/10/15 01:13:57;;;;;;;2.80;1.67;;;;;21.30;100626.00;;;;2074127;28;20216;-57
2023/10/15 01:14:58;;;;;;;2.90;1.63;;;;;21.30;100627.00;;;;2065265;28;20713;-57
2023/10/15 01:16:03;;;;;;;3.00;1.80;;;;;21.30;100627.00;;;;2056580;28;20401;-57
2023/10/15 01:17:04;;;;;;;3.22;1.42;;;;;21.40;100613.00;;;;2058164;28;20239;-57
2023/10/15 01:18:07;;;;;;;2.30;1.37;;;;;21.30;100618.00;;;;2048639;28;20381;-57
2023/10/15 01:20:11;;;;;;;2.10;1.60;;;;;21.30;100629.00;;;;2074969;28;20221;-58
2023/10/15 01:21:14;;;;;;;4.37;2.07;;;;;21.40;100625.00;;;;2076422;28;20213;-57
2023/10/15 01:22:18;;;;;;;2.97;1.67;;;;;21.30;100625.00;;;;2069378;28;20267;-57
2023/10/15 01:24:04;;;;;;;4.05;1.98;;;;;21.30;100622.00;;;;2067843;28;20212;-57
2023/10/15 01:24:41;;;;;;;2.75;1.45;;;;;21.30;100677.00;;;;2064949;28;20296;-56
2023/10/15 01:25:48;;;;;;;2.80;1.40;;;;;21.30;100637.00;;;;2074514;28;20730;-58
2023/10/15 01:27:30;;;;;;;3.03;1.40;;;;;21.30;100592.00;;;;2072337;28;20229;-57
2023/10/15 01:28:12;;;;;;;2.63;1.75;;;;;21.30;100491.00;;;;2047890;28;20223;-57
2023/10/15 01:29:18;;;;;;;5.67;1.40;;;;;21.30;100616.00;;;;2067081;28;20603;-58
2023/10/15 01:30:19;;;;;;;3.28;1.60;;;;;21.30;100627.00;;;;2065825;28;20229;-57
2023/10/15 01:31:19;;;;;;;4.80;1.43;;;;;21.40;100625.00;;;;2068491;28;20245;-57
2023/10/15 01:32:21;;;;;;;2.43;1.33;;;;;21.30;100594.00;;;;2070645;28;20461;-57
2023/10/15 01:33:22;;;;;;;2.85;1.70;;;;;21.30;100624.00;;;;2052141;28;20250;-57
2023/10/15 01:34:22;;;;;;;2.67;1.50;;;;;21.30;100615.00;;;;2057696;28;20764;-58
2023/10/15 01:35:24;;;;;;;3.30;1.40;;;;;21.30;100621.00;;;;2066040;28;20839;-56
2023/10/15 01:36:28;;;;;;;4.38;1.90;;;;;21.30;100616.00;;;;2068799;28;20289;-56
2023/10/15 01:37:28;;;;;;;2.78;1.67;;;;;21.30;100606.00;;;;2077408;28;20222;-55
2023/10/15 01:38:29;;;;;;;2.53;1.30;;;;;21.30;100614.00;;;;2060417;28;20225;-56
2023/10/15 01:39:37;;;;;;;2.00;1.00;;;;;21.30;100622.00;;;;2073108;28;20231;-58
2023/10/15 01:40:40;;;;;;;2.00;1.23;;;;;21.30;100624.00;;;;2067264;28;20244;-56
2023/10/15 01:41:41;;;;;;;4.03;1.40;;;;;21.30;100626.00;;;;2067748;28;20214;-58
2023/10/15 01:42:42;;;;;;;3.40;1.17;;;;;21.30;100648.00;;;;2057374;28;20858;-58
2023/10/15 01:43:46;;;;;;;3.17;1.33;;;;;21.30;100652.00;;;;2063407;28;20216;-56
2023/10/15 01:44:49;;;;;;;2.45;1.60;;;;;21.30;100635.00;;;;2054777;28;20450;-57
2023/10/15 01:45:57;;;;;;;2.65;1.45;;;;;21.30;100649.00;;;;2059813;28;20207;-56
2023/10/15 01:47:08;;;;;;;3.95;1.70;;;;;21.30;100655.00;;;;2063874;28;20555;-56
2023/10/15 01:48:24;;;;;;;4.05;1.60;;;;;21.30;100665.00;;;;2059073;28;20523;-58
2023/10/15 01:49:33;;;;;;;4.00;1.90;;;;;21.30;100654.00;;;;2068581;28;20699;-57
2023/10/15 01:50:44;;;;;;;3.42;1.70;;;;;21.30;100637.00;;;;2060006;28;20305;-56
2023/10/15 01:51:45;;;;;;;2.90;1.30;;;;;21.30;100638.00;;;;2074972;28;20217;-58
2023/10/15 01:52:45;;;;;;;3.53;1.40;;;;;21.30;100499.00;;;;2062875;28;20566;-58
2023/10/15 01:53:45;;;;;;;4.10;1.47;;;;;21.30;100660.00;;;;2070436;28;20819;-56
2023/10/15 01:54:46;;;;;;;3.40;1.93;;;;;21.30;100668.00;;;;2073595;28;20561;-56
2023/10/15 01:55:56;;;;;;;3.77;1.60;;;;;21.30;100673.00;;;;2068395;28;20217;-57
2023/10/15 01:56:57;;;;;;;2.80;1.50;;;;;21.30;100679.00;;;;2058691;28;20290;-58
2023/10/15 01:58:00;;;;;;;3.03;1.53;;;;;20.80;100664.00;;;;2055434;28;20653;-58
2023/10/15 01:59:07;;;;;;;2.83;1.50;;;;;21.30;100655.00;;;;2068442;28;20255;-56
2023/10/15 02:00:14;;;;;;;3.92;1.58;;;;;21.30;100648.00;;;;2061153;28;20225;-56
2023/10/15 02:01:31;;;;;;;2.80;1.40;;;;;21.30;100657.00;;;;2067196;28;20214;-57
2023/10/15 02:02:32;;;;;;;2.00;1.30;;;;;21.30;100665.00;;;;2068789;28;20221;-57
2023/10/15 02:03:33;;;;;;;2.75;1.50;;;;;21.30;100669.00;;;;2072435;28;20237;-57
2023/10/15 02:04:42;;;;;;;3.47;1.63;;;;;21.20;100657.00;;;;2067756;28;20210;-57
2023/10/15 02:05:42;;;;;;;1.95;1.10;;;;;21.30;100658.00;;;;2061337;28;20211;-56
2023/10/15 02:06:45;;;;;;;2.67;1.50;;;;;21.30;100655.00;;;;2068568;28;20925;-57
2023/10/15 02:07:45;;;;;;;2.80;1.40;;;;;21.30;100653.00;;;;2059050;28;20214;-57
2023/10/15 02:08:46;;;;;;;2.27;1.30;;;;;21.30;100655.00;;;;2069499;28;20234;-58
2023/10/15 02:09:46;;;;;;;3.17;1.80;;;;;21.30;100658.00;;;;2070436;28;20221;-56
2023/10/15 02:10:47;;;;;;;3.33;1.70;;;;;21.30;100662.00;;;;2075235;28;20309;-56
2023/10/15 02:11:54;;;;;;;2.23;1.23;;;;;21.30;100671.00;;;;2073281;28;20360;-57
2023/10/15 02:13:04;;;;;;;3.17;1.30;;;;;21.30;100665.00;;;;2059624;28;20233;-57
2023/10/15 02:14:08;;;;;;;3.38;1.25;;;;;21.30;100663.00;;;;2067216;28;20218;-57
2023/10/15 02:15:22;;;;;;;2.13;1.70;;;;;21.30;100658.00;;;;2065878;28;20245;-58
2023/10/15 02:16:29;;;;;;;2.25;1.45;;;;;21.30;100656.00;;;;2065976;28;20913;-58
2023/10/15 02:17:33;;;;;;;2.65;1.50;;;;;21.30;100661.00;;;;2072595;28;20225;-56
2023/10/15 02:18:35;;;;;;;4.50;1.45;;;;;21.30;100662.00;;;;2061094;28;20219;-57
2023/10/15 02:19:40;;;;;;;3.95;1.40;;;;;21.30;100656.00;;;;2066685;28;20301;-57
2023/10/15 02:21:00;;;;;;;3.10;1.40;;;;;21.30;100511.00;;;;2071008;28;20220;-58
2023/10/15 02:22:01;;;;;;;2.00;1.40;;;;;21.30;100663.00;;;;2057134;28;20683;-58
2023/10/15 02:23:02;;;;;;;2.45;1.38;;;;;21.30;100661.00;;;;2051027;28;20218;-57
2023/10/15 02:24:08;;;;;;;3.70;1.50;;;;;21.30;100658.00;;;;2057974;28;20354;-58
2023/10/15 02:25:08;;;;;;;2.95;1.10;;;;;21.30;100671.00;;;;2061296;28;20219;-56
2023/10/15 02:26:09;;;;;;;2.73;1.50;;;;;21.30;100658.00;;;;2066849;28;20582;-57
2023/10/15 02:27:09;;;;;;;2.50;1.50;;;;;21.30;100557.00;;;;2063473;28;20219;-56
2023/10/15 02:28:10;;;;;;;3.07;1.73;;;;;21.30;100666.00;;;;2053862;28;20767;-56
2023/10/15 02:29:28;;;;;;;4.57;2.10;;;;;21.30;100661.00;;;;2070072;28;20268;-57
2023/10/15 02:30:32;;;;;;;2.83;1.80;;;;;21.30;100661.00;;;;2060334;28;20215;-57
2023/10/15 02:31:41;;;;;;;2.10;1.40;;;;;21.30;100658.00;;;;2054332;28;20223;-55
2023/10/15 02:32:43;;;;;;;3.15;1.40;;;;;21.20;100654.00;;;;2052638;28;20222;-58
2023/10/15 02:33:43;;;;;;;2.63;1.70;;;;;21.30;100655.00;;;;2070609;28;20218;-58
2023/10/15 02:34:44;;;;;;;3.27;1.33;;;;;21.30;100662.00;;;;2079782;28;20592;-56
2023/10/15 02:35:47;;;;;;;2.33;1.33;;;;;21.30;100653.00;;;;2068373;28;20357;-57
2023/10/15 02:36:47;;;;;;;3.50;1.80;;;;;21.30;100659.00;;;;2064790;28;20218;-60
2023/10/15 02:37:48;;;;;;;4.23;1.63;;;;;21.30;100656.00;;;;2066127;28;20237;-58
2023/10/15 02:38:56;;;;;;;4.33;1.70;;;;;21.30;100657.00;;;;2066353;28;20210;-56
2023/10/15 02:39:59;;;;;;;3.42;1.50;;;;;21.30;100656.00;;;;2076823;28;20224;-56
2023/10/15 02:41:06;;;;;;;2.53;1.40;;;;;21.20;100657.00;;;;2068863;28;20249;-57
2023/10/15 02:42:07;;;;;;;2.85;1.60;;;;;21.20;100656.00;;;;2061543;28;20215;-58
2023/10/15 02:43:07;;;;;;;3.00;1.60;;;;;21.20;100654.00;;;;2058567;28;20328;-58
2023/10/15 02:44:12;;;;;;;4.57;1.70;;;;;21.20;100656.00;;;;2071152;28;20249;-58
2023/10/15 02:45:14;;;;;;;1.95;1.55;;;;;21.20;100659.00;;;;2059579;28;20250;-56
2023/10/15 02:46:35;;;;;;;3.05;1.80;;;;;21.30;100659.00;;;;2059225;28;20590;-56
2023/10/15 02:47:41;;;;;;;2.83;1.60;;;;;21.30;100652.00;;;;2058085;28;20218;-57
2023/10/15 02:48:42;;;;;;;3.25;1.90;;;;;21.20;100656.00;;;;2075703;28;20214;-58
2023/10/15 02:49:59;;;;;;;2.40;1.83;;;;;21.20;100662.00;;;;2076031;28;20217;-56
2023/10/15 02:51:00;;;;;;;2.90;2.03;;;;;21.20;100667.00;;;;2063863;28;20265;-56
2023/10/15 02:52:01;;;;;;;2.90;1.80;;;;;21.20;100665.00;;;;2071425;28;20570;-56
2023/10/15 02:53:04;;;;;;;2.80;1.90;;;;;21.20;100668.00;;;;2053954;28;20269;-57
2023/10/15 02:55:26;;;;;;;4.65;1.85;;;;;21.20;100655.00;;;;2068077;28;20718;-58
2023/10/15 02:56:28;;;;;;;3.20;2.05;;;;;21.20;100657.00;;;;2074103;28;20244;-56
2023/10/15 02:57:30;;;;;;;3.88;1.92;;;;;21.20;100692.00;;;;2068605;28;20228;-58
2023/10/15 02:58:30;;;;;;;3.55;1.25;;;;;21.20;100672.00;;;;2064238;28;20225;-56
2023/10/15 02:59:31;;;;;;;4.10;1.67;;;;;21.20;100665.00;;;;2072522;28;20677;-57
2023/10/15 03:00:35;;;;;;;2.00;1.70;;;;;21.20;100666.00;;;;2060602;28;20750;-58
2023/10/15 03:01:36;;;;;;;4.32;2.10;;;;;21.20;100671.00;;;;2060347;28;20464;-57
2023/10/15 03:02:42;;;;;;;3.07;1.97;;;;;21.20;100671.00;;;;2056287;28;20788;-57
2023/10/15 03:03:48;;;;;;;3.65;2.03;;;;;21.20;100671.00;;;;2059320;28;20588;-57
2023/10/15 03:04:54;;;;;;;3.13;1.58;;;;;21.20;100683.00;;;;2058723;28;20289;-56
2023/10/15 03:05:57;;;;;;;3.15;1.83;;;;;21.20;100673.00;;;;2068748;28;20218;-58
2023/10/15 03:07:19;;;;;;;3.22;1.92;;;;;21.20;100670.00;;;;2068003;28;20928;-57
2023/10/15 03:08:20;;;;;;;2.50;2.00;;;;;21.20;100669.00;;;;2063225;28;20279;-56
2023/10/15 03:09:21;;;;;;;4.18;2.10;;;;;21.20;100671.00;;;;2069979;28;20218;-57
2023/10/15 03:10:21;;;;;;;2.70;2.00;;;;;21.20;100668.00;;;;2068742;28;20221;-57
2023/10/15 03:11:23;;;;;;;3.13;2.27;;;;;21.20;100661.00;;;;2059151;28;20306;-56
2023/10/15 03:12:24;;;;;;;3.75;2.28;;;;;21.20;100652.00;;;;2060318;28;20238;-56
2023/10/15 03:13:26;;;;;;;3.80;2.03;;;;;21.20;100663.00;;;;2058748;28;20222;-56
2023/10/15 03:14:26;;;;;;;2.30;1.60;;;;;21.20;100653.00;;;;2061957;28;20215;-56
2023/10/15 03:15:29;;;;;;;3.35;2.25;;;;;21.20;100662.00;;;;2060816;28;20228;-58
2023/10/15 03:16:30;;;;;;;3.80;2.20;;;;;21.10;100660.00;;;;2057577;28;20306;-56
2023/10/15 03:17:31;;;;;;;3.30;2.08;;;;;21.20;100664.00;;;;2069671;28;20228;-59
2023/10/15 03:18:34;;;;;;;3.67;1.93;;;;;21.20;100658.00;;;;2062972;28;20277;-57
2023/10/15 03:19:34;;;;;;;3.28;2.10;;;;;21.20;100508.00;;;;2068676;28;20183;-56
2023/10/15 03:20:39;;;;;;;4.40;2.00;;;;;21.20;100658.00;;;;2067392;28;20606;-56
2023/10/15 03:21:40;;;;;;;2.70;1.80;;;;;21.20;100662.00;;;;2067815;28;20741;-56
2023/10/15 03:22:40;;;;;;;2.25;1.73;;;;;21.20;100653.00;;;;2057785;28;20228;-56
2023/10/15 03:23:42;;;;;;;2.90;1.73;;;;;21.20;100643.00;;;;2075389;28;20245;-56
2023/10/15 03:24:43;;;;;;;3.05;1.90;;;;;21.20;100640.00;;;;2064713;28;20314;-58
2023/10/15 03:25:48;;;;;;;2.75;2.03;;;;;21.20;100645.00;;;;2060711;28;20213;-57
2023/10/15 03:26:48;;;;;;;3.13;2.00;;;;;21.20;100646.00;;;;2064427;28;20222;-58
2023/10/15 03:27:48;;;;;;;6.90;2.43;;;;;21.20;100637.00;;;;2055637;28;20237;-56
2023/10/15 03:28:51;;;;;;;2.63;1.80;;;;;21.20;100644.00;;;;2073093;28;20267;-56
2023/10/15 03:29:56;;;;;;;4.07;1.60;;;;;21.20;100651.00;;;;2065976;28;20319;-57
2023/10/15 03:30:56;;;;;;;2.92;1.80;;;;;21.20;100643.00;;;;2070450;28;20293;-58
2023/10/15 03:32:15;;;;;;;3.63;2.10;;;;;21.20;100650.00;;;;2074358;28;20214;-57
2023/10/15 03:33:18;;;;;;;3.47;2.20;;;;;21.20;100660.00;;;;2054793;28;20218;-57
2023/10/15 03:34:22;;;;;;;3.90;2.05;;;;;21.20;100647.00;;;;2064196;28;20219;-57
2023/10/15 03:35:33;;;;;;;3.63;2.10;;;;;21.20;100645.00;;;;2059579;28;20302;-58
2023/10/15 03:36:57;;;;;;;2.50;1.85;;;;;21.20;100646.00;;;;2061109;28;20225;-57
2023/10/15 03:38:14;;;;;;;3.13;1.77;;;;;21.20;100655.00;;;;2052987;28;20264;-57
2023/10/15 03:39:24;;;;;;;4.75;2.58;;;;;21.20;100655.00;;;;2064163;28;20229;-57
2023/10/15 03:40:31;;;;;;;2.80;1.90;;;;;21.20;100656.00;;;;2073906;28;20217;-57
2023/10/15 03:41:39;;;;;;;5.82;1.90;;;;;21.20;100647.00;;;;2069208;28;20252;-57
2023/10/15 03:42:40;;;;;;;2.60;1.48;;;;;21.20;100657.00;;;;2058011;28;20226;-57
2023/10/15 03:43:41;;;;;;;2.80;1.97;;;;;21.20;100659.00;;;;2069516;28;20218;-57
2023/10/15 03:44:47;;;;;;;4.47;1.73;;;;;21.20;100654.00;;;;2068882;28;20460;-56
2023/10/15 03:45:50;;;;;;;3.50;2.35;;;;;21.20;100656.00;;;;2060633;28;21066;-56
2023/10/15 03:46:51;;;;;;;3.65;1.80;;;;;21.10;100655.00;;;;2064526;28;20226;-57
2023/10/15 03:47:54;;;;;;;3.17;2.23;;;;;21.10;100654.00;;;;2058349;28;20248;-57
2023/10/15 03:48:54;;;;;;;4.90;2.10;;;;;21.10;100661.00;;;;2067393;28;20296;-58
2023/10/15 03:49:55;;;;;;;2.93;2.10;;;;;21.20;100663.00;;;;2069565;28;20213;-57
2023/10/15 03:50:58;;;;;;;2.20;1.55;;;;;21.20;100668.00;;;;2065020;28;20254;-57
2023/10/15 03:51:58;;;;;;;3.67;2.20;;;;;21.10;100650.00;;;;2070558;28;20221;-57
2023/10/15 03:52:59;;;;;;;3.93;1.70;;;;;21.20;100651.00;;;;2056629;28;20716;-57
2023/10/15 03:54:06;;;;;;;5.80;1.90;;;;;21.10;100643.00;;;;2062180;28;20364;-57
2023/10/15 03:55:07;;;;;;;2.90;1.60;;;;;20.70;100655.00;;;;2069390;28;20575;-57
2023/10/15 03:56:07;;;;;;;2.80;1.87;;;;;21.10;100666.00;;;;2063545;28;20234;-57
2023/10/15 03:57:08;;;;;;;2.93;1.67;;;;;21.10;100657.00;;;;2066352;28;20206;-57
2023/10/15 03:58:13;;;;;;;2.40;1.63;;;;;21.20;100655.00;;;;2053057;28;20482;-57
2023/10/15 03:59:13;;;;;;;3.45;1.98;;;;;21.20;100660.00;;;;2066567;28;20252;-56
2023/10/15 04:00:26;;;;;;;5.50;2.17;;;;;21.20;100674.00;;;;2068948;28;20676;-57
2023/10/15 04:01:27;;;;;;;3.35;1.60;;;;;21.20;100680.00;;;;2074105;28;20222;-57
2023/10/15 04:02:54;;;;;;;3.20;1.92;;;;;21.20;100671.00;;;;2069628;28;20225;-57
2023/10/15 04:03:54;;;;;;;2.17;1.40;;;;;21.10;100675.00;;;;2063135;28;20247;-58
2023/10/15 04:05:01;;;;;;;2.27;1.60;;;;;21.10;100671.00;;;;2073531;28;20268;-57
2023/10/15 04:06:05;;;;;;;2.38;1.60;;;;;21.20;100548.00;;;;2067501;28;20305;-57
2023/10/15 04:07:19;;;;;;;2.83;1.60;;;;;21.20;100686.00;;;;2059128;28;20253;-57
2023/10/15 04:08:20;;;;;;;2.72;1.83;;;;;21.10;100678.00;;;;2056765;28;20220;-56
2023/10/15 04:09:24;;;;;;;1.83;1.40;;;;;21.10;100670.00;;;;2071051;28;20233;-56
2023/10/15 04:10:33;;;;;;;2.20;1.50;;;;;21.10;100662.00;;;;2067605;28;20249;-57
2023/10/15 04:11:43;;;;;;;3.00;1.35;;;;;21.10;100650.00;;;;2067689;28;20703;-56
2023/10/15 04:12:43;;;;;;;2.67;1.58;;;;;21.10;100657.00;;;;2059771;28;20313;-56
2023/10/15 04:13:45;;;;;;;5.20;1.73;;;;;21.10;100659.00;;;;2078459;28;20209;-56
2023/10/15 04:14:46;;;;;;;4.13;1.92;;;;;21.10;100657.00;;;;2070402;28;20238;-56
2023/10/15 04:15:47;;;;;;;1.80;1.47;;;;;21.10;100658.00;;;;2060515;28;20230;-56
2023/10/15 04:16:50;;;;;;;2.90;1.20;;;;;21.10;100661.00;;;;2062418;28;20758;-56
2023/10/15 04:17:51;;;;;;;2.38;1.50;;;;;21.10;100659.00;;;;2072736;28;20225;-58
2023/10/15 04:18:52;;;;;;;2.13;1.35;;;;;21.10;100654.00;;;;2069527;28;20229;-56
2023/10/15 04:19:52;;;;;;;2.00;1.37;;;;;21.10;100645.00;;;;2066926;28;20218;-57
2023/10/15 04:20:53;;;;;;;2.83;1.57;;;;;21.10;100651.00;;;;2073152;28;20221;-57
2023/10/15 04:21:59;;;;;;;2.72;1.80;;;;;21.10;100645.00;;;;2060897;28;20226;-56
2023/10/15 04:22:59;;;;;;;2.05;1.38;;;;;21.10;100649.00;;;;2052839;28;20229;-56
2023/10/15 04:24:00;;;;;;;3.97;1.53;;;;;21.10;100645.00;;;;2072156;28;20210;-57
2023/10/15 04:25:06;;;;;;;1.57;1.27;;;;;21.00;100646.00;;;;2069054;28;20218;-57
2023/10/15 04:26:11;;;;;;;3.30;1.90;;;;;21.10;100652.00;;;;2069812;28;20205;-57
2023/10/15 04:27:15;;;;;;;2.60;1.63;;;;;21.10;100669.00;;;;2069626;28;20573;-57
2023/10/15 04:28:18;;;;;;;2.90;1.48;;;;;21.10;100652.00;;;;2062852;28;20244;-56
2023/10/15 04:29:21;;;;;;;3.15;1.35;;;;;21.10;100655.00;;;;2065707;28;20273;-57
2023/10/15 04:30:21;;;;;;;2.60;1.55;;;;;21.10;100663.00;;;;2065928;28;20235;-56
2023/10/15 04:31:22;;;;;;;2.27;1.40;;;;;21.10;100658.00;;;;2067571;28;20229;-57
2023/10/15 04:32:28;;;;;;;2.65;1.48;;;;;21.10;100658.00;;;;2073570;28;20218;-57
2023/10/15 04:33:30;;;;;;;2.03;1.30;;;;;21.10;100668.00;;;;2059761;28;20314;-57
2023/10/15 04:34:36;;;;;;;2.25;1.52;;;;;21.10;100662.00;;;;2071040;28;20301;-57
2023/10/15 04:35:37;;;;;;;3.40;1.45;;;;;21.10;100677.00;;;;2067123;28;20237;-57
2023/10/15 04:36:40;;;;;;;4.10;1.40;;;;;21.10;100672.00;;;;2061724;28;20215;-57
2023/10/15 04:37:41;;;;;;;2.20;1.40;;;;;21.10;100669.00;;;;2044667;28;20227;-57
2023/10/15 04:38:41;;;;;;;2.37;1.60;;;;;21.10;100668.00;;;;2067979;28;20773;-57
2023/10/15 04:39:54;;;;;;;2.13;1.00;;;;;21.10;100666.00;;;;2076832;28;20210;-57
2023/10/15 04:42:01;;;;;;;2.85;1.23;;;;;21.10;100663.00;;;;2060560;28;20219;-57
2023/10/15 04:43:01;;;;;;;2.30;1.42;;;;;21.10;100658.00;;;;2054374;28;20222;-57
2023/10/15 04:44:03;;;;;;;3.47;1.30;;;;;21.10;100663.00;;;;2067465;28;20253;-57
2023/10/15 04:46:26;;;;;;;2.30;1.10;;;;;21.10;100656.00;;;;2060399;28;20226;-57
2023/10/15 04:47:38;;;;;;;2.67;1.30;;;;;21.10;100656.00;;;;2061698;28;20226;-57
2023/10/15 04:48:38;;;;;;;1.92;1.20;;;;;21.10;100651.00;;;;2068420;28;20210;-57
2023/10/15 04:49:39;;;;;;;1.90;1.10;;;;;21.10;100649.00;;;;2071130;28;20218;-57
2023/10/15 04:50:40;;;;;;;2.10;1.50;;;;;21.10;100644.00;;;;2075653;28;20792;-57
2023/10/15 04:51:44;;;;;;;2.50;1.20;;;;;21.10;100639.00;;;;2071503;28;20313;-57
2023/10/15 04:52:44;;;;;;;2.13;1.23;;;;;21.10;100636.00;;;;2058288;28;20210;-57
2023/10/15 04:53:44;;;;;;;1.43;1.00;;;;;21.00;100634.00;;;;2068815;28;21010;-57
2023/10/15 04:54:45;;;;;;;3.83;1.67;;;;;21.00;100617.00;;;;2069090;28;20210;-57
2023/10/15 04:55:47;;;;;;;2.17;1.20;;;;;21.00;100624.00;;;;2067923;28;20337;-57
2023/10/15 04:56:47;;;;;;;2.65;1.30;;;;;21.00;100623.00;;;;2076102;28;20275;-56
2023/10/15 04:57:48;;;;;;;1.57;1.17;;;;;21.00;100621.00;;;;2059812;28;20213;-57
2023/10/15 04:58:48;;;;;;;4.13;1.27;;;;;21.10;100627.00;;;;2075810;28;20225;-57
2023/10/15 04:59:49;;;;;;;2.13;1.17;;;;;21.10;100625.00;;;;2067445;28;20226;-57
2023/10/15 05:00:49;;;;;;;1.73;1.13;;;;;21.10;100618.00;;;;2066147;28;20226;-57
2023/10/15 05:01:50;;;;;;;1.90;1.13;;;;;21.00;100617.00;;;;2069030;28;20225;-57
2023/10/15 05:02:52;;;;;;;1.87;1.17;;;;;21.00;100621.00;;;;2057971;28;20223;-57
2023/10/15 05:03:52;;;;;;;3.05;1.40;;;;;21.00;100629.00;;;;2067723;28;20218;-57
2023/10/15 05:04:53;;;;;;;4.10;1.37;;;;;21.00;100621.00;;;;2068908;28;20835;-58
2023/10/15 05:05:59;;;;;;;3.33;1.30;;;;;21.00;100628.00;;;;2069839;28;20562;-57
2023/10/15 05:06:59;;;;;;;2.22;1.10;;;;;21.10;100631.00;;;;2063232;28;20516;-57
2023/10/15 05:08:00;;;;;;;2.20;1.30;;;;;21.10;100628.00;;;;2064536;28;20233;-57
2023/10/15 05:09:01;;;;;;;3.87;1.20;;;;;21.00;100625.00;;;;2076448;28;20285;-58
2023/10/15 05:10:01;;;;;;;2.33;1.17;;;;;21.10;100625.00;;;;2068482;28;20257;-57
2023/10/15 05:11:01;;;;;;;2.33;1.07;;;;;21.10;100633.00;;;;2068605;28;20552;-56
2023/10/15 05:12:06;;;;;;;2.10;1.10;;;;;21.00;100637.00;;;;2067803;28;20349;-57
2023/10/15 05:13:07;;;;;;;2.10;1.10;;;;;21.00;100638.00;;;;2066035;28;20229;-57
2023/10/15 05:14:07;;;;;;;2.83;1.20;;;;;21.00;100638.00;;;;2076957;28;20213;-57
2023/10/15 05:15:13;;;;;;;1.83;0.90;;;;;21.00;100639.00;;;;2070902;28;20297;-57
2023/10/15 05:16:14;;;;;;;2.63;1.20;;;;;21.00;100638.00;;;;2074477;28;20297;-57
2023/10/15 05:17:15;;;;;;;2.03;1.10;;;;;21.00;100640.00;;;;2070929;28;20281;-57
2023/10/15 05:18:18;;;;;;;2.97;1.83;;;;;21.00;100642.00;;;;2061610;28;20221;-57
2023/10/15 05:19:19;;;;;;;1.95;1.15;;;;;21.00;100646.00;;;;2068768;28;20221;-57
2023/10/15 05:20:20;;;;;;;2.57;1.00;;;;;21.10;100663.00;;;;2067986;28;20222;-57